sensor_id;sensor_type;location;lat;lon;timestamp;pressure;altitude;pressure_sealevel;temperature;humidity
77776;BME280;66965;43.328;6.668;2023-02-28T00:01:30;101345.06;;;11.44;58.66
77776;BME280;66965;43.328;6.668;2023-02-28T00:03:56;101358.25;;;11.41;60.52
77776;BME280;66965;43.328;6.668;2023-02-28T00:06:22;101346.00;;;11.40;61.05
77776;BME280;66965;43.328;6.668;2023-02-28T00:08:49;101350.63;;;11.25;61.89
77776;BME280;66965;43.328;6.668;2023-02-28T00:11:15;101348.19;;;11.13;60.73
77776;BME280;66965;43.328;6.668;2023-02-28T00:13:42;101363.88;;;11.15;63.94
77776;BME280;66965;43.328;6.668;2023-02-28T00:16:11;101349.91;;;11.14;61.12
77776;BME280;66965;43.328;6.668;2023-02-28T00:18:38;101375.28;;;11.12;62.72
77776;BME280;66965;43.328;6.668;2023-02-28T00:21:04;101359.47;;;11.20;61.47
77776;BME280;66965;43.328;6.668;2023-02-28T00:23:29;101363.97;;;11.12;59.36
77776;BME280;66965;43.328;6.668;2023-02-28T00:25:55;101366.56;;;11.12;60.67
77776;BME280;66965;43.328;6.668;2023-02-28T00:28:21;101369.25;;;11.07;60.58
77776;BME280;66965;43.328;6.668;2023-02-28T00:30:47;101377.31;;;10.95;61.38
77776;BME280;66965;43.328;6.668;2023-02-28T00:33:12;101381.50;;;11.08;62.74
77776;BME280;66965;43.328;6.668;2023-02-28T00:35:38;101383.28;;;11.06;64.02
77776;BME280;66965;43.328;6.668;2023-02-28T00:38:03;101386.84;;;10.99;60.56
77776;BME280;66965;43.328;6.668;2023-02-28T00:40:29;101374.53;;;11.06;61.31
77776;BME280;66965;43.328;6.668;2023-02-28T00:42:55;101384.28;;;10.98;63.73
77776;BME280;66965;43.328;6.668;2023-02-28T00:45:20;101375.69;;;10.87;63.94
77776;BME280;66965;43.328;6.668;2023-02-28T00:47:45;101384.41;;;10.87;65.55
77776;BME280;66965;43.328;6.668;2023-02-28T00:50:16;101389.81;;;10.75;64.66
77776;BME280;66965;43.328;6.668;2023-02-28T00:52:41;101399.44;;;10.76;65.43
77776;BME280;66965;43.328;6.668;2023-02-28T00:55:07;101378.59;;;10.65;64.56
77776;BME280;66965;43.328;6.668;2023-02-28T00:57:32;101396.94;;;10.65;65.31
77776;BME280;66965;43.328;6.668;2023-02-28T00:59:58;101377.84;;;10.54;64.96
77776;BME280;66965;43.328;6.668;2023-02-28T01:02:23;101392.56;;;10.63;66.22
77776;BME280;66965;43.328;6.668;2023-02-28T01:04:49;101389.19;;;10.55;66.35
77776;BME280;66965;43.328;6.668;2023-02-28T01:07:14;101394.53;;;10.49;65.20
77776;BME280;66965;43.328;6.668;2023-02-28T01:09:41;101399.53;;;10.67;68.01
77776;BME280;66965;43.328;6.668;2023-02-28T01:12:08;101384.88;;;10.49;65.18
77776;BME280;66965;43.328;6.668;2023-02-28T01:14:34;101397.16;;;10.46;64.90
77776;BME280;66965;43.328;6.668;2023-02-28T01:16:59;101393.47;;;10.62;64.30
77776;BME280;66965;43.328;6.668;2023-02-28T01:19:25;101398.69;;;10.63;64.59
77776;BME280;66965;43.328;6.668;2023-02-28T01:21:50;101395.16;;;10.66;63.08
77776;BME280;66965;43.328;6.668;2023-02-28T01:24:16;101402.31;;;10.53;65.09
77776;BME280;66965;43.328;6.668;2023-02-28T01:26:41;101393.72;;;10.42;67.50
77776;BME280;66965;43.328;6.668;2023-02-28T01:29:07;101403.38;;;10.37;65.71
77776;BME280;66965;43.328;6.668;2023-02-28T01:31:32;101413.84;;;10.36;68.59
77776;BME280;66965;43.328;6.668;2023-02-28T01:33:58;101409.38;;;10.47;69.23
77776;BME280;66965;43.328;6.668;2023-02-28T01:36:24;101398.13;;;10.37;69.65
77776;BME280;66965;43.328;6.668;2023-02-28T01:38:50;101399.09;;;10.29;67.74
77776;BME280;66965;43.328;6.668;2023-02-28T01:41:22;101408.69;;;10.33;70.34
77776;BME280;66965;43.328;6.668;2023-02-28T01:46:14;101412.34;;;10.12;69.66
77776;BME280;66965;43.328;6.668;2023-02-28T01:49:12;101411.50;;;10.08;68.80
77776;BME280;66965;43.328;6.668;2023-02-28T01:51:50;101409.75;;;10.14;69.78
77776;BME280;66965;43.328;6.668;2023-02-28T01:54:21;101409.69;;;10.18;71.31
77776;BME280;66965;43.328;6.668;2023-02-28T01:56:54;101402.84;;;10.02;71.73
77776;BME280;66965;43.328;6.668;2023-02-28T01:59:29;101408.03;;;10.06;71.66
77776;BME280;66965;43.328;6.668;2023-02-28T02:01:57;101408.19;;;9.90;71.23
77776;BME280;66965;43.328;6.668;2023-02-28T02:04:26;101398.63;;;9.84;72.35
77776;BME280;66965;43.328;6.668;2023-02-28T02:06:53;101397.69;;;9.94;72.64
77776;BME280;66965;43.328;6.668;2023-02-28T02:09:19;101391.69;;;9.79;71.56
77776;BME280;66965;43.328;6.668;2023-02-28T02:11:44;101395.88;;;9.98;72.43
77776;BME280;66965;43.328;6.668;2023-02-28T02:17:02;101389.72;;;10.05;72.57
77776;BME280;66965;43.328;6.668;2023-02-28T02:36:14;101393.06;;;10.21;68.09
77776;BME280;66965;43.328;6.668;2023-02-28T02:38:34;101403.53;;;10.24;66.99
77776;BME280;66965;43.328;6.668;2023-02-28T02:43:48;101416.38;;;10.45;68.97
77776;BME280;66965;43.328;6.668;2023-02-28T02:46:37;101404.63;;;9.98;67.70
77776;BME280;66965;43.328;6.668;2023-02-28T02:49:06;101387.19;;;9.96;69.52
77776;BME280;66965;43.328;6.668;2023-02-28T02:51:35;101404.47;;;10.12;68.34
77776;BME280;66965;43.328;6.668;2023-02-28T02:54:08;101400.91;;;10.24;70.49
77776;BME280;66965;43.328;6.668;2023-02-28T02:56:39;101395.78;;;10.13;70.11
77776;BME280;66965;43.328;6.668;2023-02-28T02:59:09;101390.72;;;9.90;70.74
77776;BME280;66965;43.328;6.668;2023-02-28T03:01:37;101394.34;;;9.76;71.62
77776;BME280;66965;43.328;6.668;2023-02-28T03:04:08;101394.22;;;9.89;72.16
77776;BME280;66965;43.328;6.668;2023-02-28T03:06:34;101397.09;;;9.59;71.05
77776;BME280;66965;43.328;6.668;2023-02-28T03:09:01;101396.03;;;9.81;72.04
77776;BME280;66965;43.328;6.668;2023-02-28T03:11:27;101386.72;;;9.48;71.41
77776;BME280;66965;43.328;6.668;2023-02-28T03:27:55;101378.72;;;9.65;72.03
77776;BME280;66965;43.328;6.668;2023-02-28T03:33:26;101370.66;;;9.89;71.64
77776;BME280;66965;43.328;6.668;2023-02-28T03:36:00;101381.97;;;9.93;71.73
77776;BME280;66965;43.328;6.668;2023-02-28T03:39:06;101372.44;;;9.87;70.47
77776;BME280;66965;43.328;6.668;2023-02-28T03:41:39;101367.88;;;10.06;70.31
77776;BME280;66965;43.328;6.668;2023-02-28T03:44:12;101363.59;;;9.97;70.30
77776;BME280;66965;43.328;6.668;2023-02-28T03:46:46;101364.34;;;10.10;71.38
77776;BME280;66965;43.328;6.668;2023-02-28T03:49:21;101367.88;;;10.07;69.54
77776;BME280;66965;43.328;6.668;2023-02-28T03:51:49;101371.31;;;10.14;70.02
77776;BME280;66965;43.328;6.668;2023-02-28T03:54:20;101365.22;;;10.10;70.55
77776;BME280;66965;43.328;6.668;2023-02-28T03:57:12;101370.53;;;10.01;69.73
77776;BME280;66965;43.328;6.668;2023-02-28T03:59:45;101360.88;;;10.06;69.38
77776;BME280;66965;43.328;6.668;2023-02-28T04:02:12;101373.91;;;10.19;70.41
77776;BME280;66965;43.328;6.668;2023-02-28T04:04:38;101367.03;;;10.04;70.06
77776;BME280;66965;43.328;6.668;2023-02-28T04:07:06;101377.56;;;9.99;69.01
77776;BME280;66965;43.328;6.668;2023-02-28T04:09:33;101362.81;;;9.91;69.80
77776;BME280;66965;43.328;6.668;2023-02-28T04:11:58;101372.44;;;9.84;69.15
77776;BME280;66965;43.328;6.668;2023-02-28T04:14:24;101370.53;;;10.01;70.30
77776;BME280;66965;43.328;6.668;2023-02-28T04:16:50;101362.66;;;10.03;70.49
77776;BME280;66965;43.328;6.668;2023-02-28T04:19:16;101372.34;;;9.96;71.04
77776;BME280;66965;43.328;6.668;2023-02-28T04:21:50;101371.38;;;10.03;70.65
77776;BME280;66965;43.328;6.668;2023-02-28T04:24:18;101348.66;;;10.07;70.37
77776;BME280;66965;43.328;6.668;2023-02-28T04:26:47;101366.97;;;10.13;70.83
77776;BME280;66965;43.328;6.668;2023-02-28T04:29:18;101362.78;;;9.89;70.53
77776;BME280;66965;43.328;6.668;2023-02-28T04:31:44;101362.13;;;9.72;71.09
77776;BME280;66965;43.328;6.668;2023-02-28T04:34:09;101364.72;;;9.71;71.69
77776;BME280;66965;43.328;6.668;2023-02-28T04:36:35;101361.25;;;9.69;70.86
77776;BME280;66965;43.328;6.668;2023-02-28T04:39:00;101365.66;;;9.67;69.83
77776;BME280;66965;43.328;6.668;2023-02-28T04:41:26;101370.66;;;9.89;70.30
77776;BME280;66965;43.328;6.668;2023-02-28T04:43:52;101379.47;;;9.79;71.07
77776;BME280;66965;43.328;6.668;2023-02-28T04:46:18;101377.00;;;9.66;71.66
77776;BME280;66965;43.328;6.668;2023-02-28T04:48:44;101377.69;;;9.86;71.41
77776;BME280;66965;43.328;6.668;2023-02-28T04:51:12;101371.38;;;10.03;69.55
77776;BME280;66965;43.328;6.668;2023-02-28T04:53:39;101378.63;;;9.76;69.49
77776;BME280;66965;43.328;6.668;2023-02-28T04:56:06;101385.84;;;9.52;70.73
77776;BME280;66965;43.328;6.668;2023-02-28T04:58:33;101376.25;;;9.53;71.78
77776;BME280;66965;43.328;6.668;2023-02-28T05:01:14;101374.50;;;9.49;71.08
77776;BME280;66965;43.328;6.668;2023-02-28T05:03:41;101400.56;;;9.64;72.02
77776;BME280;66965;43.328;6.668;2023-02-28T05:06:08;101383.06;;;9.72;71.05
77776;BME280;66965;43.328;6.668;2023-02-28T05:08:34;101387.13;;;10.02;69.72
77776;BME280;66965;43.328;6.668;2023-02-28T05:11:00;101386.16;;;10.12;67.84
77776;BME280;66965;43.328;6.668;2023-02-28T05:13:29;101385.13;;;10.28;67.33
77776;BME280;66965;43.328;6.668;2023-02-28T05:15:55;101392.03;;;10.37;67.60
77776;BME280;66965;43.328;6.668;2023-02-28T05:18:21;101390.41;;;10.27;66.97
77776;BME280;66965;43.328;6.668;2023-02-28T05:20:47;101387.81;;;10.24;67.43
77776;BME280;66965;43.328;6.668;2023-02-28T05:23:16;101386.22;;;10.03;65.13
77776;BME280;66965;43.328;6.668;2023-02-28T05:25:42;101397.47;;;10.17;66.27
77776;BME280;66965;43.328;6.668;2023-02-28T05:28:08;101400.88;;;10.25;67.02
77776;BME280;66965;43.328;6.668;2023-02-28T05:30:34;101400.75;;;10.37;68.09
77776;BME280;66965;43.328;6.668;2023-02-28T05:32:59;101393.56;;;10.54;69.33
77776;BME280;66965;43.328;6.668;2023-02-28T05:35:25;101397.88;;;10.60;67.50
77776;BME280;66965;43.328;6.668;2023-02-28T05:37:51;101392.72;;;10.54;67.10
77776;BME280;66965;43.328;6.668;2023-02-28T05:40:17;101408.50;;;10.48;67.29
77776;BME280;66965;43.328;6.668;2023-02-28T05:42:42;101400.88;;;10.27;67.38
77776;BME280;66965;43.328;6.668;2023-02-28T05:45:08;101407.94;;;10.17;67.76
77776;BME280;66965;43.328;6.668;2023-02-28T05:47:35;101414.19;;;10.02;69.38
77776;BME280;66965;43.328;6.668;2023-02-28T05:50:00;101404.69;;;9.91;69.33
77776;BME280;66965;43.328;6.668;2023-02-28T05:52:27;101406.38;;;9.96;66.30
77776;BME280;66965;43.328;6.668;2023-02-28T05:54:52;101403.59;;;10.11;69.52
77776;BME280;66965;43.328;6.668;2023-02-28T05:57:18;101404.50;;;10.09;68.97
77776;BME280;66965;43.328;6.668;2023-02-28T05:59:43;101404.50;;;10.15;69.78
77776;BME280;66965;43.328;6.668;2023-02-28T06:02:13;101402.78;;;10.06;69.37
77776;BME280;66965;43.328;6.668;2023-02-28T06:04:38;101407.19;;;10.04;70.71
77776;BME280;66965;43.328;6.668;2023-02-28T06:07:06;101411.53;;;10.05;71.65
77776;BME280;66965;43.328;6.668;2023-02-28T06:09:32;101429.72;;;10.22;71.52
77776;BME280;66965;43.328;6.668;2023-02-28T06:11:59;101429.75;;;10.21;70.97
77776;BME280;66965;43.328;6.668;2023-02-28T06:14:25;101434.16;;;10.19;71.22
77776;BME280;66965;43.328;6.668;2023-02-28T06:16:50;101432.44;;;10.15;71.29
77776;BME280;66965;43.328;6.668;2023-02-28T06:19:16;101427.13;;;10.21;73.00
77776;BME280;66965;43.328;6.668;2023-02-28T06:21:42;101435.16;;;10.02;73.18
77776;BME280;66965;43.328;6.668;2023-02-28T06:24:08;101435.19;;;9.99;73.54
77776;BME280;66965;43.328;6.668;2023-02-28T06:26:35;101436.81;;;10.09;73.54
77776;BME280;66965;43.328;6.668;2023-02-28T06:29:01;101437.81;;;9.95;73.47
77776;BME280;66965;43.328;6.668;2023-02-28T06:31:27;101440.34;;;10.04;74.11
77776;BME280;66965;43.328;6.668;2023-02-28T06:33:55;101439.63;;;9.91;73.51
77776;BME280;66965;43.328;6.668;2023-02-28T06:36:21;101438.75;;;9.86;73.52
77776;BME280;66965;43.328;6.668;2023-02-28T06:38:47;101447.63;;;9.70;72.88
77776;BME280;66965;43.328;6.668;2023-02-28T06:41:17;101440.59;;;9.77;72.81
77776;BME280;66965;43.328;6.668;2023-02-28T06:43:43;101448.56;;;9.60;71.78
77776;BME280;66965;43.328;6.668;2023-02-28T06:46:12;101446.78;;;9.70;72.75
77776;BME280;66965;43.328;6.668;2023-02-28T06:48:38;101448.50;;;9.71;72.32
77776;BME280;66965;43.328;6.668;2023-02-28T06:51:07;101445.75;;;9.87;71.65
77776;BME280;66965;43.328;6.668;2023-02-28T06:53:33;101437.00;;;9.87;72.42
77776;BME280;66965;43.328;6.668;2023-02-28T06:55:59;101445.72;;;9.90;70.67
77776;BME280;66965;43.328;6.668;2023-02-28T06:58:25;101445.53;;;10.15;71.48
77776;BME280;66965;43.328;6.668;2023-02-28T07:00:51;101447.47;;;9.90;71.78
77776;BME280;66965;43.328;6.668;2023-02-28T07:03:18;101453.63;;;9.81;72.41
77776;BME280;66965;43.328;6.668;2023-02-28T07:05:44;101463.53;;;9.44;72.79
77776;BME280;66965;43.328;6.668;2023-02-28T07:08:09;101458.28;;;9.43;73.42
77776;BME280;66965;43.328;6.668;2023-02-28T07:10:37;101461.00;;;9.31;73.28
77776;BME280;66965;43.328;6.668;2023-02-28T07:13:04;101466.28;;;9.20;73.94
77776;BME280;66965;43.328;6.668;2023-02-28T07:15:30;101475.03;;;9.15;74.45
77776;BME280;66965;43.328;6.668;2023-02-28T07:17:55;101474.19;;;9.05;74.51
77776;BME280;66965;43.328;6.668;2023-02-28T07:20:22;101477.66;;;9.15;74.40
77776;BME280;66965;43.328;6.668;2023-02-28T07:22:48;101482.91;;;9.09;74.44
77776;BME280;66965;43.328;6.668;2023-02-28T07:25:21;101479.44;;;9.02;74.51
77776;BME280;66965;43.328;6.668;2023-02-28T07:27:46;101475.09;;;8.98;73.72
77776;BME280;66965;43.328;6.668;2023-02-28T07:30:12;101485.44;;;9.25;74.29
77776;BME280;66965;43.328;6.668;2023-02-28T07:32:38;101474.84;;;9.43;73.82
77776;BME280;66965;43.328;6.668;2023-02-28T07:35:04;101478.31;;;9.53;73.92
77776;BME280;66965;43.328;6.668;2023-02-28T07:37:29;101479.22;;;9.47;73.88
77776;BME280;66965;43.328;6.668;2023-02-28T07:39:56;101481.78;;;9.52;73.52
77776;BME280;66965;43.328;6.668;2023-02-28T07:42:22;101498.28;;;9.66;74.69
77776;BME280;66965;43.328;6.668;2023-02-28T07:44:47;101493.69;;;9.97;74.10
77776;BME280;66965;43.328;6.668;2023-02-28T07:47:13;101494.78;;;9.66;72.68
77776;BME280;66965;43.328;6.668;2023-02-28T07:49:38;101501.88;;;9.47;73.46
77776;BME280;66965;43.328;6.668;2023-02-28T07:52:05;101495.72;;;9.54;74.19
77776;BME280;66965;43.328;6.668;2023-02-28T07:54:31;101497.44;;;9.60;73.52
77776;BME280;66965;43.328;6.668;2023-02-28T07:56:57;101489.63;;;9.55;72.30
77776;BME280;66965;43.328;6.668;2023-02-28T07:59:23;101496.56;;;9.59;72.98
77776;BME280;66965;43.328;6.668;2023-02-28T08:01:48;101501.84;;;9.48;72.96
77776;BME280;66965;43.328;6.668;2023-02-28T08:04:16;101498.44;;;9.42;73.48
77776;BME280;66965;43.328;6.668;2023-02-28T08:06:41;101500.16;;;9.40;72.99
77776;BME280;66965;43.328;6.668;2023-02-28T08:09:07;101504.41;;;9.61;73.28
77776;BME280;66965;43.328;6.668;2023-02-28T08:11:33;101500.06;;;9.58;73.63
77776;BME280;66965;43.328;6.668;2023-02-28T08:13:58;101498.25;;;9.69;73.14
77776;BME280;66965;43.328;6.668;2023-02-28T08:16:24;101511.31;;;9.74;74.03
77776;BME280;66965;43.328;6.668;2023-02-28T08:18:51;101509.72;;;9.50;72.87
77776;BME280;66965;43.328;6.668;2023-02-28T08:21:17;101512.38;;;9.44;73.54
77776;BME280;66965;43.328;6.668;2023-02-28T08:23:43;101509.75;;;9.41;74.12
77776;BME280;66965;43.328;6.668;2023-02-28T08:26:09;101504.63;;;9.26;73.14
77776;BME280;66965;43.328;6.668;2023-02-28T08:28:34;101511.50;;;9.45;73.15
77776;BME280;66965;43.328;6.668;2023-02-28T08:31:00;101509.78;;;9.32;72.93
77776;BME280;66965;43.328;6.668;2023-02-28T08:33:26;101488.00;;;9.30;72.90
77776;BME280;66965;43.328;6.668;2023-02-28T08:35:53;101502.91;;;9.23;72.34
77776;BME280;66965;43.328;6.668;2023-02-28T08:38:19;101514.19;;;9.28;71.61
77776;BME280;66965;43.328;6.668;2023-02-28T08:40:44;101502.84;;;9.31;73.73
77776;BME280;66965;43.328;6.668;2023-02-28T08:43:10;101513.25;;;9.38;73.16
77776;BME280;66965;43.328;6.668;2023-02-28T08:45:35;101519.34;;;9.43;72.97
77776;BME280;66965;43.328;6.668;2023-02-28T08:48:01;101520.25;;;9.35;73.68
77776;BME280;66965;43.328;6.668;2023-02-28T08:50:26;101515.91;;;9.37;73.47
77776;BME280;66965;43.328;6.668;2023-02-28T08:52:52;101517.69;;;9.29;72.46
77776;BME280;66965;43.328;6.668;2023-02-28T08:55:17;101520.25;;;9.38;71.48
77776;BME280;66965;43.328;6.668;2023-02-28T08:57:43;101516.53;;;9.75;72.72
77776;BME280;66965;43.328;6.668;2023-02-28T09:00:09;101521.00;;;9.61;72.19
77776;BME280;66965;43.328;6.668;2023-02-28T09:02:35;101526.25;;;9.58;73.39
77776;BME280;66965;43.328;6.668;2023-02-28T09:05:01;101511.47;;;9.49;72.83
77776;BME280;66965;43.328;6.668;2023-02-28T09:07:28;101520.13;;;9.61;72.13
77776;BME280;66965;43.328;6.668;2023-02-28T09:09:53;101528.75;;;9.75;73.22
77776;BME280;66965;43.328;6.668;2023-02-28T09:12:26;101517.38;;;9.80;73.01
77776;BME280;66965;43.328;6.668;2023-02-28T09:14:52;101508.34;;;10.24;72.05
77776;BME280;66965;43.328;6.668;2023-02-28T09:17:19;101503.03;;;10.28;69.68
77776;BME280;66965;43.328;6.668;2023-02-28T09:19:45;101521.53;;;10.07;70.00
77776;BME280;66965;43.328;6.668;2023-02-28T09:22:12;101530.25;;;10.07;70.87
77776;BME280;66965;43.328;6.668;2023-02-28T09:24:38;101525.91;;;10.08;72.41
77776;BME280;66965;43.328;6.668;2023-02-28T09:27:04;101524.22;;;9.99;71.70
77776;BME280;66965;43.328;6.668;2023-02-28T09:29:30;101522.38;;;10.10;71.62
77776;BME280;66965;43.328;6.668;2023-02-28T09:31:56;101525.94;;;10.02;69.92
77776;BME280;66965;43.328;6.668;2023-02-28T09:34:24;101525.03;;;10.06;71.02
77776;BME280;66965;43.328;6.668;2023-02-28T09:36:50;101529.28;;;10.22;70.80
77776;BME280;66965;43.328;6.668;2023-02-28T09:39:20;101521.28;;;10.39;69.72
77776;BME280;66965;43.328;6.668;2023-02-28T09:41:48;101526.41;;;10.49;69.42
77776;BME280;66965;43.328;6.668;2023-02-28T09:44:40;101517.75;;;10.43;68.40
77776;BME280;66965;43.328;6.668;2023-02-28T09:49:41;101515.03;;;10.53;67.74
77776;BME280;66965;43.328;6.668;2023-02-28T09:52:15;101532.44;;;10.59;67.73
77776;BME280;66965;43.328;6.668;2023-02-28T09:54:42;101525.50;;;10.52;66.67
77776;BME280;66965;43.328;6.668;2023-02-28T10:05:16;101525.59;;;10.46;65.36
77776;BME280;66965;43.328;6.668;2023-02-28T10:10:28;101522.03;;;10.50;64.77
77776;BME280;66965;43.328;6.668;2023-02-28T10:12:57;101521.09;;;10.60;65.00
77776;BME280;66965;43.328;6.668;2023-02-28T10:15:25;101519.94;;;10.82;66.61
77776;BME280;66965;43.328;6.668;2023-02-28T10:18:03;101518.78;;;11.07;64.74
77776;BME280;66965;43.328;6.668;2023-02-28T10:20:33;101520.75;;;10.89;62.46
77776;BME280;66965;43.328;6.668;2023-02-28T10:25:35;101518.06;;;10.93;63.30
77776;BME280;66965;43.328;6.668;2023-02-28T10:28:10;101526.69;;;11.04;64.81
77776;BME280;66965;43.328;6.668;2023-02-28T10:30:42;101531.03;;;11.07;61.63
77776;BME280;66965;43.328;6.668;2023-02-28T10:33:18;101533.59;;;11.14;62.22
77776;BME280;66965;43.328;6.668;2023-02-28T10:35:45;101535.34;;;11.12;61.57
77776;BME280;66965;43.328;6.668;2023-02-28T10:38:20;101537.72;;;11.34;61.47
77776;BME280;66965;43.328;6.668;2023-02-28T10:40:46;101539.38;;;11.41;62.08
77776;BME280;66965;43.328;6.668;2023-02-28T10:46:01;101533.28;;;11.39;60.99
77776;BME280;66965;43.328;6.668;2023-02-28T10:48:40;101541.06;;;11.45;60.44
77776;BME280;66965;43.328;6.668;2023-02-28T10:51:19;101540.09;;;11.52;59.11
77776;BME280;66965;43.328;6.668;2023-02-28T10:53:51;101546.97;;;11.60;60.68
77776;BME280;66965;43.328;6.668;2023-02-28T10:56:22;101547.75;;;11.67;58.01
77776;BME280;66965;43.328;6.668;2023-02-28T10:59:00;101541.41;;;11.84;59.63
77776;BME280;66965;43.328;6.668;2023-02-28T11:03:56;101531.78;;;11.85;59.30
77776;BME280;66965;43.328;6.668;2023-02-28T11:06:25;101543.03;;;11.93;58.13
77776;BME280;66965;43.328;6.668;2023-02-28T11:08:54;101538.63;;;11.95;58.88
77776;BME280;66965;43.328;6.668;2023-02-28T11:11:22;101529.53;;;12.14;57.11
77776;BME280;66965;43.328;6.668;2023-02-28T11:13:53;101533.66;;;12.30;56.25
77776;BME280;66965;43.328;6.668;2023-02-28T11:16:20;101521.19;;;12.41;57.24
77776;BME280;66965;43.328;6.668;2023-02-28T11:18:52;101516.25;;;12.72;56.00
77776;BME280;66965;43.328;6.668;2023-02-28T11:21:26;101522.84;;;12.94;56.98
77776;BME280;66965;43.328;6.668;2023-02-28T11:24:12;101514.44;;;13.20;55.58
77776;BME280;66965;43.328;6.668;2023-02-28T11:26:44;101513.72;;;13.14;54.79
77776;BME280;66965;43.328;6.668;2023-02-28T11:29:32;101496.97;;;13.16;55.23
77776;BME280;66965;43.328;6.668;2023-02-28T11:34:38;101487.16;;;12.81;57.54
77776;BME280;66965;43.328;6.668;2023-02-28T11:37:04;101492.94;;;12.53;58.25
77776;BME280;66965;43.328;6.668;2023-02-28T11:39:32;101487.38;;;12.69;59.10
77776;BME280;66965;43.328;6.668;2023-02-28T11:52:53;101456.72;;;12.67;61.67
77776;BME280;66965;43.328;6.668;2023-02-28T12:04:03;101448.34;;;12.91;62.27
77776;BME280;66965;43.328;6.668;2023-02-28T12:07:00;101447.03;;;12.69;60.73
77776;BME280;66965;43.328;6.668;2023-02-28T12:09:58;101445.44;;;12.62;62.41
77776;BME280;66965;43.328;6.668;2023-02-28T12:20:46;101420.38;;;13.27;57.65
77776;BME280;66965;43.328;6.668;2023-02-28T12:28:43;101422.13;;;13.28;60.08
77776;BME280;66965;43.328;6.668;2023-02-28T12:31:24;101414.56;;;13.13;62.10
77776;BME280;66965;43.328;6.668;2023-02-28T12:33:55;101406.41;;;12.82;60.34
77776;BME280;66965;43.328;6.668;2023-02-28T12:36:23;101399.69;;;12.70;58.75
77776;BME280;66965;43.328;6.668;2023-02-28T12:39:05;101410.81;;;12.83;60.13
77776;BME280;66965;43.328;6.668;2023-02-28T12:44:15;101413.16;;;12.54;61.33
77776;BME280;66965;43.328;6.668;2023-02-28T12:46:49;101415.09;;;12.44;61.94
77776;BME280;66965;43.328;6.668;2023-02-28T12:49:30;101413.75;;;12.22;60.14
77776;BME280;66965;43.328;6.668;2023-02-28T12:51:57;101424.16;;;12.29;62.50
77776;BME280;66965;43.328;6.668;2023-02-28T12:54:42;101415.47;;;12.24;60.49
77776;BME280;66965;43.328;6.668;2023-02-28T12:57:21;101411.13;;;12.22;60.07
77776;BME280;66965;43.328;6.668;2023-02-28T13:00:10;101413.72;;;12.25;62.77
77776;BME280;66965;43.328;6.668;2023-02-28T13:05:37;101402.25;;;12.27;61.31
77776;BME280;66965;43.328;6.668;2023-02-28T13:08:24;101399.56;;;12.32;61.46
77776;BME280;66965;43.328;6.668;2023-02-28T13:10:53;101398.44;;;12.43;59.73
77776;BME280;66965;43.328;6.668;2023-02-28T13:13:21;101397.72;;;12.35;60.94
77776;BME280;66965;43.328;6.668;2023-02-28T13:16:01;101402.94;;;12.38;59.31
77776;BME280;66965;43.328;6.668;2023-02-28T13:18:42;101396.03;;;12.33;59.47
77776;BME280;66965;43.328;6.668;2023-02-28T13:21:22;101394.31;;;12.32;58.47
77776;BME280;66965;43.328;6.668;2023-02-28T13:26:20;101387.72;;;12.08;56.84
77776;BME280;66965;43.328;6.668;2023-02-28T13:31:20;101387.72;;;12.10;59.50
77776;BME280;66965;43.328;6.668;2023-02-28T13:36:31;101390.31;;;12.11;58.39
77776;BME280;66965;43.328;6.668;2023-02-28T13:55:35;101373.25;;;12.33;60.26
77776;BME280;66965;43.328;6.668;2023-02-28T14:05:34;101367.97;;;12.33;60.85
77776;BME280;66965;43.328;6.668;2023-02-28T14:08:21;101369.69;;;12.36;59.21
77776;BME280;66965;43.328;6.668;2023-02-28T14:10:50;101364.38;;;12.39;59.77
77776;BME280;66965;43.328;6.668;2023-02-28T14:16:00;101361.56;;;12.46;57.11
77776;BME280;66965;43.328;6.668;2023-02-28T14:18:29;101358.13;;;12.44;58.23
77776;BME280;66965;43.328;6.668;2023-02-28T14:24:03;101356.31;;;12.46;62.17
77776;BME280;66965;43.328;6.668;2023-02-28T14:32:05;101356.31;;;12.48;61.10
77776;BME280;66965;43.328;6.668;2023-02-28T14:34:35;101354.59;;;12.45;60.25
77776;BME280;66965;43.328;6.668;2023-02-28T14:37:03;101352.03;;;12.42;60.86
77776;BME280;66965;43.328;6.668;2023-02-28T14:39:30;101354.72;;;12.38;62.42
77776;BME280;66965;43.328;6.668;2023-02-28T14:41:56;101345.97;;;12.39;59.96
77776;BME280;66965;43.328;6.668;2023-02-28T14:44:27;101345.84;;;12.45;62.29
77776;BME280;66965;43.328;6.668;2023-02-28T14:46:55;101348.69;;;12.34;58.09
77776;BME280;66965;43.328;6.668;2023-02-28T14:49:26;101348.63;;;12.37;60.19
77776;BME280;66965;43.328;6.668;2023-02-28T14:52:26;101344.88;;;12.49;59.21
77776;BME280;66965;43.328;6.668;2023-02-28T14:54:56;101340.53;;;12.46;56.23
77776;BME280;66965;43.328;6.668;2023-02-28T14:57:26;101347.59;;;12.44;56.62
77776;BME280;66965;43.328;6.668;2023-02-28T15:00:13;101325.69;;;12.44;56.85
77776;BME280;66965;43.328;6.668;2023-02-28T15:02:40;101337.97;;;12.43;53.63
77776;BME280;66965;43.328;6.668;2023-02-28T15:07:35;101326.53;;;12.46;54.13
77776;BME280;66965;43.328;6.668;2023-02-28T15:10:27;101337.97;;;12.43;56.13
77776;BME280;66965;43.328;6.668;2023-02-28T15:13:06;101329.13;;;12.47;59.13
77776;BME280;66965;43.328;6.668;2023-02-28T15:15:40;101326.44;;;12.51;60.23
77776;BME280;66965;43.328;6.668;2023-02-28T15:18:12;101323.06;;;12.44;59.89
77776;BME280;66965;43.328;6.668;2023-02-28T15:20:41;101324.81;;;12.43;59.04
77776;BME280;66965;43.328;6.668;2023-02-28T15:23:07;101324.75;;;12.46;59.00
77776;BME280;66965;43.328;6.668;2023-02-28T15:25:34;101327.38;;;12.48;61.89
77776;BME280;66965;43.328;6.668;2023-02-28T15:28:00;101331.00;;;12.41;57.46
77776;BME280;66965;43.328;6.668;2023-02-28T15:30:30;101331.00;;;12.41;58.29
77776;BME280;66965;43.328;6.668;2023-02-28T15:33:27;101311.72;;;12.42;59.41